KABI/ABI METAR and TAF weather

Enter ICAO airport designator
Station Type Date Time Source
KABI METAR 2018/10/16 20:52 UTC NOAA

KABI 162052Z 34012KT 9SM -RA BKN007 OVC019 06/05 A3028 RMK AO2 SLP256 P0001 60030 T00610050 55006 $


Station Type Date Time Source
KABI Decoded METAR 2018/10/16 20:52 UTC NOAA

ABILENE REGIONAL AIRPORT, TX, United States (KABI) 32-25N 099-41W 548M
Oct 16, 2018 - 04:52 PM EDT / 2018.10.16 2052 UTC
Wind: from the NNW (340 degrees) at 14 MPH (12 KT):0
Visibility: 9 mile(s):0
Sky conditions: overcast
Weather: light rain
Precipitation last hour: 0.01 inches
Temperature: 43.0 F (6.1 C)
Dew Point: 41.0 F (5.0 C)
Relative Humidity: 92%
Pressure (altimeter): 30.28 in. Hg (1025 hPa)
Pressure tendency: 0.02 inches (0.6 hPa) lower than three hours ago
ob: KABI 162052Z 34012KT 9SM -RA BKN007 OVC019 06/05 A3028 RMK AO2 SLP256 P0001 60030 T00610050 55006
cycle: 21

Station Type Date Time Source
KABI TAF 2018/10/16 19:21 UTC NOAA

TAF
AMD KABI 161919Z 1619/1718 36013KT 4SM -RA BR OVC012
TEMPO 1619/1623 2SM RA OVC004
FM170000 36010KT 4SM -RA BR OVC012
FM171200 36008KT 4SM RA BR OVC008


Example: see airport list